sensor_id;sensor_type;location;lat;lon;timestamp;temperature;humidity
74153;DHT22;62505;46.070;14.492;2023-07-16T00:01:14;25.20;92.20
74153;DHT22;62505;46.070;14.492;2023-07-16T00:03:41;25.10;92.20
74153;DHT22;62505;46.070;14.492;2023-07-16T00:06:08;25.20;92.30
74153;DHT22;62505;46.070;14.492;2023-07-16T00:08:35;25.10;92.20
74153;DHT22;62505;46.070;14.492;2023-07-16T00:11:04;25.10;92.10
74153;DHT22;62505;46.070;14.492;2023-07-16T00:13:31;25.20;92.20
74153;DHT22;62505;46.070;14.492;2023-07-16T00:15:58;25.10;92.10
74153;DHT22;62505;46.070;14.492;2023-07-16T00:18:25;25.10;92.40
74153;DHT22;62505;46.070;14.492;2023-07-16T00:20:52;25.10;92.40
74153;DHT22;62505;46.070;14.492;2023-07-16T00:23:19;25.20;92.10
74153;DHT22;62505;46.070;14.492;2023-07-16T00:25:46;25.10;92.10
74153;DHT22;62505;46.070;14.492;2023-07-16T00:28:14;25.20;92.10
74153;DHT22;62505;46.070;14.492;2023-07-16T00:30:41;25.10;92.00
74153;DHT22;62505;46.070;14.492;2023-07-16T00:33:08;25.10;92.00
74153;DHT22;62505;46.070;14.492;2023-07-16T00:35:35;25.20;92.00
74153;DHT22;62505;46.070;14.492;2023-07-16T00:38:02;25.20;92.00
74153;DHT22;62505;46.070;14.492;2023-07-16T00:40:28;25.20;92.00
74153;DHT22;62505;46.070;14.492;2023-07-16T00:42:55;25.10;92.00
74153;DHT22;62505;46.070;14.492;2023-07-16T00:45:24;25.20;92.00
74153;DHT22;62505;46.070;14.492;2023-07-16T00:47:51;25.20;92.00
74153;DHT22;62505;46.070;14.492;2023-07-16T00:50:18;25.20;91.90
74153;DHT22;62505;46.070;14.492;2023-07-16T00:52:46;25.20;91.90
74153;DHT22;62505;46.070;14.492;2023-07-16T00:55:13;25.20;91.90
74153;DHT22;62505;46.070;14.492;2023-07-16T00:57:40;25.10;91.90
74153;DHT22;62505;46.070;14.492;2023-07-16T01:00:08;25.20;91.90
74153;DHT22;62505;46.070;14.492;2023-07-16T01:02:37;25.20;91.90
74153;DHT22;62505;46.070;14.492;2023-07-16T01:05:05;25.20;91.80
74153;DHT22;62505;46.070;14.492;2023-07-16T01:07:32;25.10;91.80
74153;DHT22;62505;46.070;14.492;2023-07-16T01:10:00;25.10;91.80
74153;DHT22;62505;46.070;14.492;2023-07-16T01:12:28;25.20;91.80
74153;DHT22;62505;46.070;14.492;2023-07-16T01:14:56;25.10;91.80
74153;DHT22;62505;46.070;14.492;2023-07-16T01:17:24;25.10;91.70
74153;DHT22;62505;46.070;14.492;2023-07-16T01:19:53;25.10;91.70
74153;DHT22;62505;46.070;14.492;2023-07-16T01:22:45;25.10;91.70
74153;DHT22;62505;46.070;14.492;2023-07-16T01:25:30;25.10;91.70
74153;DHT22;62505;46.070;14.492;2023-07-16T01:28:11;25.10;91.70
74153;DHT22;62505;46.070;14.492;2023-07-16T01:30:44;25.20;91.70
74153;DHT22;62505;46.070;14.492;2023-07-16T01:33:12;25.20;91.70
74153;DHT22;62505;46.070;14.492;2023-07-16T01:35:40;25.20;91.70
74153;DHT22;62505;46.070;14.492;2023-07-16T01:38:10;25.20;91.70
74153;DHT22;62505;46.070;14.492;2023-07-16T01:40:37;25.10;91.60
74153;DHT22;62505;46.070;14.492;2023-07-16T01:43:04;25.10;91.60
74153;DHT22;62505;46.070;14.492;2023-07-16T01:45:31;25.10;91.60
74153;DHT22;62505;46.070;14.492;2023-07-16T01:48:09;25.20;91.60
74153;DHT22;62505;46.070;14.492;2023-07-16T01:50:39;25.20;91.60
74153;DHT22;62505;46.070;14.492;2023-07-16T01:53:06;25.10;91.50
74153;DHT22;62505;46.070;14.492;2023-07-16T01:55:33;25.20;91.60
74153;DHT22;62505;46.070;14.492;2023-07-16T01:58:00;25.10;91.50
74153;DHT22;62505;46.070;14.492;2023-07-16T02:00:27;25.20;91.60
74153;DHT22;62505;46.070;14.492;2023-07-16T02:02:53;25.10;91.50
74153;DHT22;62505;46.070;14.492;2023-07-16T02:05:22;25.10;91.50
74153;DHT22;62505;46.070;14.492;2023-07-16T02:07:49;25.20;91.50
74153;DHT22;62505;46.070;14.492;2023-07-16T02:10:15;25.10;91.40
74153;DHT22;62505;46.070;14.492;2023-07-16T02:12:42;25.20;91.50
74153;DHT22;62505;46.070;14.492;2023-07-16T02:15:09;25.10;91.40
74153;DHT22;62505;46.070;14.492;2023-07-16T02:17:36;25.20;91.50
74153;DHT22;62505;46.070;14.492;2023-07-16T02:20:04;25.20;91.40
74153;DHT22;62505;46.070;14.492;2023-07-16T02:22:34;25.10;91.40
74153;DHT22;62505;46.070;14.492;2023-07-16T02:25:02;25.20;91.40
74153;DHT22;62505;46.070;14.492;2023-07-16T02:27:29;25.20;91.40
74153;DHT22;62505;46.070;14.492;2023-07-16T02:29:56;25.20;91.40
74153;DHT22;62505;46.070;14.492;2023-07-16T02:32:23;25.20;91.40
74153;DHT22;62505;46.070;14.492;2023-07-16T02:34:50;25.20;91.40
74153;DHT22;62505;46.070;14.492;2023-07-16T02:37:17;25.10;91.30
74153;DHT22;62505;46.070;14.492;2023-07-16T02:39:45;25.20;91.40
74153;DHT22;62505;46.070;14.492;2023-07-16T02:42:13;25.20;91.40
74153;DHT22;62505;46.070;14.492;2023-07-16T02:44:40;25.20;91.30
74153;DHT22;62505;46.070;14.492;2023-07-16T02:47:10;25.20;91.30
74153;DHT22;62505;46.070;14.492;2023-07-16T02:49:37;25.20;91.30
74153;DHT22;62505;46.070;14.492;2023-07-16T02:52:04;25.20;91.20
74153;DHT22;62505;46.070;14.492;2023-07-16T02:54:31;25.20;91.30
74153;DHT22;62505;46.070;14.492;2023-07-16T02:57:00;25.20;91.20
74153;DHT22;62505;46.070;14.492;2023-07-16T02:59:27;25.10;91.20
74153;DHT22;62505;46.070;14.492;2023-07-16T03:01:54;25.20;91.20
74153;DHT22;62505;46.070;14.492;2023-07-16T03:04:21;25.10;91.20
74153;DHT22;62505;46.070;14.492;2023-07-16T03:06:47;25.20;91.20
74153;DHT22;62505;46.070;14.492;2023-07-16T03:09:14;25.10;91.10
74153;DHT22;62505;46.070;14.492;2023-07-16T03:11:41;25.20;91.20
74153;DHT22;62505;46.070;14.492;2023-07-16T03:14:10;25.10;91.50
74153;DHT22;62505;46.070;14.492;2023-07-16T03:16:36;25.10;91.10
74153;DHT22;62505;46.070;14.492;2023-07-16T03:19:03;25.10;91.10
74153;DHT22;62505;46.070;14.492;2023-07-16T03:21:31;25.20;91.50
74153;DHT22;62505;46.070;14.492;2023-07-16T03:23:58;25.10;91.10
74153;DHT22;62505;46.070;14.492;2023-07-16T03:26:25;25.20;91.10
74153;DHT22;62505;46.070;14.492;2023-07-16T03:28:52;25.10;91.10
74153;DHT22;62505;46.070;14.492;2023-07-16T03:31:20;25.20;91.10
74153;DHT22;62505;46.070;14.492;2023-07-16T03:33:47;25.20;91.10
74153;DHT22;62505;46.070;14.492;2023-07-16T03:36:14;25.20;91.10
74153;DHT22;62505;46.070;14.492;2023-07-16T03:38:41;25.10;91.00
74153;DHT22;62505;46.070;14.492;2023-07-16T03:41:07;25.10;91.00
74153;DHT22;62505;46.070;14.492;2023-07-16T03:43:34;25.20;91.10
74153;DHT22;62505;46.070;14.492;2023-07-16T03:46:01;25.10;91.00
74153;DHT22;62505;46.070;14.492;2023-07-16T03:48:29;25.10;91.00
74153;DHT22;62505;46.070;14.492;2023-07-16T03:50:56;25.20;91.00
74153;DHT22;62505;46.070;14.492;2023-07-16T03:53:23;25.20;91.00
74153;DHT22;62505;46.070;14.492;2023-07-16T03:55:50;25.20;91.00
74153;DHT22;62505;46.070;14.492;2023-07-16T03:58:17;25.20;91.00
74153;DHT22;62505;46.070;14.492;2023-07-16T04:00:44;25.20;91.00
74153;DHT22;62505;46.070;14.492;2023-07-16T04:03:11;25.20;91.00
74153;DHT22;62505;46.070;14.492;2023-07-16T04:05:39;25.20;90.90
74153;DHT22;62505;46.070;14.492;2023-07-16T04:08:06;25.20;90.90
74153;DHT22;62505;46.070;14.492;2023-07-16T04:10:34;25.10;90.90
74153;DHT22;62505;46.070;14.492;2023-07-16T04:13:00;25.10;90.90
74153;DHT22;62505;46.070;14.492;2023-07-16T04:15:27;25.20;90.90
74153;DHT22;62505;46.070;14.492;2023-07-16T04:17:54;25.20;90.90
74153;DHT22;62505;46.070;14.492;2023-07-16T04:20:21;25.10;90.80
74153;DHT22;62505;46.070;14.492;2023-07-16T04:22:49;25.10;90.80
74153;DHT22;62505;46.070;14.492;2023-07-16T04:25:16;25.20;90.80
74153;DHT22;62505;46.070;14.492;2023-07-16T04:27:44;25.20;90.80
74153;DHT22;62505;46.070;14.492;2023-07-16T04:30:11;25.20;90.80
74153;DHT22;62505;46.070;14.492;2023-07-16T04:32:38;25.20;90.80
74153;DHT22;62505;46.070;14.492;2023-07-16T04:35:06;25.10;90.80
74153;DHT22;62505;46.070;14.492;2023-07-16T04:37:33;25.20;90.80
74153;DHT22;62505;46.070;14.492;2023-07-16T04:40:01;25.20;90.80
74153;DHT22;62505;46.070;14.492;2023-07-16T04:42:28;25.20;90.80
74153;DHT22;62505;46.070;14.492;2023-07-16T04:44:55;25.10;90.70
74153;DHT22;62505;46.070;14.492;2023-07-16T04:47:22;25.20;90.70
74153;DHT22;62505;46.070;14.492;2023-07-16T04:49:49;25.20;90.70
74153;DHT22;62505;46.070;14.492;2023-07-16T04:52:16;25.10;90.70
74153;DHT22;62505;46.070;14.492;2023-07-16T04:54:43;25.20;90.70
74153;DHT22;62505;46.070;14.492;2023-07-16T04:57:11;25.20;90.70
74153;DHT22;62505;46.070;14.492;2023-07-16T04:59:38;25.20;90.70
74153;DHT22;62505;46.070;14.492;2023-07-16T05:02:05;25.20;90.70
74153;DHT22;62505;46.070;14.492;2023-07-16T05:04:32;25.10;90.60
74153;DHT22;62505;46.070;14.492;2023-07-16T05:07:01;25.20;90.70
74153;DHT22;62505;46.070;14.492;2023-07-16T05:09:28;25.20;90.60
74153;DHT22;62505;46.070;14.492;2023-07-16T05:11:55;25.20;90.60
74153;DHT22;62505;46.070;14.492;2023-07-16T05:14:27;25.20;90.60
74153;DHT22;62505;46.070;14.492;2023-07-16T05:16:54;25.10;90.60
74153;DHT22;62505;46.070;14.492;2023-07-16T05:19:21;25.20;90.60
74153;DHT22;62505;46.070;14.492;2023-07-16T05:21:48;25.20;90.60
74153;DHT22;62505;46.070;14.492;2023-07-16T05:24:15;25.20;90.60
74153;DHT22;62505;46.070;14.492;2023-07-16T05:26:42;25.20;90.60
74153;DHT22;62505;46.070;14.492;2023-07-16T05:29:09;25.20;90.50
74153;DHT22;62505;46.070;14.492;2023-07-16T05:31:37;25.20;90.50
74153;DHT22;62505;46.070;14.492;2023-07-16T05:34:04;25.20;90.50
74153;DHT22;62505;46.070;14.492;2023-07-16T05:36:31;25.20;90.50
74153;DHT22;62505;46.070;14.492;2023-07-16T05:38:58;25.20;90.90
74153;DHT22;62505;46.070;14.492;2023-07-16T05:41:25;25.20;90.50
74153;DHT22;62505;46.070;14.492;2023-07-16T05:43:52;25.20;90.50
74153;DHT22;62505;46.070;14.492;2023-07-16T05:46:18;25.20;90.50
74153;DHT22;62505;46.070;14.492;2023-07-16T05:48:47;25.20;90.40
74153;DHT22;62505;46.070;14.492;2023-07-16T05:51:13;25.20;90.50
74153;DHT22;62505;46.070;14.492;2023-07-16T05:53:40;25.10;90.40
74153;DHT22;62505;46.070;14.492;2023-07-16T05:56:07;25.20;90.40
74153;DHT22;62505;46.070;14.492;2023-07-16T05:58:34;25.20;90.70
74153;DHT22;62505;46.070;14.492;2023-07-16T06:01:01;25.10;90.30
74153;DHT22;62505;46.070;14.492;2023-07-16T06:03:28;25.20;90.40
74153;DHT22;62505;46.070;14.492;2023-07-16T06:05:56;25.20;90.40
74153;DHT22;62505;46.070;14.492;2023-07-16T06:08:23;25.20;90.40
74153;DHT22;62505;46.070;14.492;2023-07-16T06:10:50;25.20;90.40
74153;DHT22;62505;46.070;14.492;2023-07-16T06:13:17;25.10;90.30
74153;DHT22;62505;46.070;14.492;2023-07-16T06:15:45;25.20;90.30
74153;DHT22;62505;46.070;14.492;2023-07-16T06:18:12;25.10;90.20
74153;DHT22;62505;46.070;14.492;2023-07-16T06:20:42;25.20;90.30
74153;DHT22;62505;46.070;14.492;2023-07-16T06:23:10;25.20;90.30
74153;DHT22;62505;46.070;14.492;2023-07-16T06:25:37;25.20;90.30
74153;DHT22;62505;46.070;14.492;2023-07-16T06:28:06;25.20;90.20
74153;DHT22;62505;46.070;14.492;2023-07-16T06:30:32;25.20;90.30
74153;DHT22;62505;46.070;14.492;2023-07-16T06:32:59;25.20;90.20
74153;DHT22;62505;46.070;14.492;2023-07-16T06:35:26;25.20;90.30
74153;DHT22;62505;46.070;14.492;2023-07-16T06:37:53;25.20;90.20
74153;DHT22;62505;46.070;14.492;2023-07-16T06:40:21;25.20;90.20
74153;DHT22;62505;46.070;14.492;2023-07-16T06:42:48;25.20;90.20
74153;DHT22;62505;46.070;14.492;2023-07-16T06:45:17;25.20;90.20
74153;DHT22;62505;46.070;14.492;2023-07-16T06:47:44;25.20;90.20
74153;DHT22;62505;46.070;14.492;2023-07-16T06:50:11;25.20;90.20
74153;DHT22;62505;46.070;14.492;2023-07-16T06:52:38;25.20;90.10
74153;DHT22;62505;46.070;14.492;2023-07-16T06:55:05;25.20;90.20
74153;DHT22;62505;46.070;14.492;2023-07-16T06:57:34;25.20;90.10
74153;DHT22;62505;46.070;14.492;2023-07-16T07:00:01;25.20;90.10
74153;DHT22;62505;46.070;14.492;2023-07-16T07:02:28;25.20;90.10
74153;DHT22;62505;46.070;14.492;2023-07-16T07:04:55;25.20;90.10
74153;DHT22;62505;46.070;14.492;2023-07-16T07:07:22;25.20;90.10
74153;DHT22;62505;46.070;14.492;2023-07-16T07:09:48;25.20;90.10
74153;DHT22;62505;46.070;14.492;2023-07-16T07:12:15;25.20;90.10
74153;DHT22;62505;46.070;14.492;2023-07-16T07:14:44;25.20;90.00
74153;DHT22;62505;46.070;14.492;2023-07-16T07:17:10;25.20;90.00
74153;DHT22;62505;46.070;14.492;2023-07-16T07:19:37;25.20;90.00
74153;DHT22;62505;46.070;14.492;2023-07-16T07:22:04;25.20;90.40
74153;DHT22;62505;46.070;14.492;2023-07-16T07:24:31;25.20;90.00
74153;DHT22;62505;46.070;14.492;2023-07-16T07:26:58;25.20;90.00
74153;DHT22;62505;46.070;14.492;2023-07-16T07:29:25;25.20;90.30
74153;DHT22;62505;46.070;14.492;2023-07-16T07:31:54;25.20;90.00
74153;DHT22;62505;46.070;14.492;2023-07-16T07:34:20;25.20;90.10
74153;DHT22;62505;46.070;14.492;2023-07-16T07:36:47;25.20;90.00
74153;DHT22;62505;46.070;14.492;2023-07-16T07:39:14;25.20;90.00
74153;DHT22;62505;46.070;14.492;2023-07-16T07:41:42;25.20;90.00
74153;DHT22;62505;46.070;14.492;2023-07-16T07:44:09;25.20;90.00
74153;DHT22;62505;46.070;14.492;2023-07-16T07:46:36;25.20;90.00
74153;DHT22;62505;46.070;14.492;2023-07-16T07:49:04;25.20;90.00
74153;DHT22;62505;46.070;14.492;2023-07-16T07:51:31;25.20;90.00
74153;DHT22;62505;46.070;14.492;2023-07-16T07:53:58;25.20;90.00
74153;DHT22;62505;46.070;14.492;2023-07-16T07:56:24;25.20;89.90
74153;DHT22;62505;46.070;14.492;2023-07-16T07:58:51;25.20;89.90
74153;DHT22;62505;46.070;14.492;2023-07-16T08:01:18;25.20;90.20
74153;DHT22;62505;46.070;14.492;2023-07-16T08:03:45;25.20;89.80
74153;DHT22;62505;46.070;14.492;2023-07-16T08:06:13;25.20;89.80
74153;DHT22;62505;46.070;14.492;2023-07-16T08:08:40;25.20;89.80
74153;DHT22;62505;46.070;14.492;2023-07-16T08:11:07;25.20;89.80
74153;DHT22;62505;46.070;14.492;2023-07-16T08:13:37;25.20;90.20
74153;DHT22;62505;46.070;14.492;2023-07-16T08:16:04;25.20;90.10
74153;DHT22;62505;46.070;14.492;2023-07-16T08:18:31;25.20;89.60
74153;DHT22;62505;46.070;14.492;2023-07-16T08:20:57;25.20;89.70
74153;DHT22;62505;46.070;14.492;2023-07-16T08:23:29;25.20;89.60
74153;DHT22;62505;46.070;14.492;2023-07-16T08:25:56;25.20;89.50
74153;DHT22;62505;46.070;14.492;2023-07-16T08:28:23;25.20;89.60
74153;DHT22;62505;46.070;14.492;2023-07-16T08:30:50;25.20;89.60
74153;DHT22;62505;46.070;14.492;2023-07-16T08:33:17;25.20;89.40
74153;DHT22;62505;46.070;14.492;2023-07-16T08:35:44;25.20;89.60
74153;DHT22;62505;46.070;14.492;2023-07-16T08:38:11;25.20;89.40
74153;DHT22;62505;46.070;14.492;2023-07-16T08:40:39;25.20;89.50
74153;DHT22;62505;46.070;14.492;2023-07-16T08:43:06;25.20;89.40
74153;DHT22;62505;46.070;14.492;2023-07-16T08:45:38;25.20;89.40
74153;DHT22;62505;46.070;14.492;2023-07-16T08:48:07;25.20;89.40
74153;DHT22;62505;46.070;14.492;2023-07-16T08:50:35;25.20;89.40
74153;DHT22;62505;46.070;14.492;2023-07-16T08:53:04;25.20;89.30
74153;DHT22;62505;46.070;14.492;2023-07-16T08:55:31;25.20;89.30
74153;DHT22;62505;46.070;14.492;2023-07-16T08:58:01;25.20;89.30
74153;DHT22;62505;46.070;14.492;2023-07-16T09:00:28;25.20;89.30
74153;DHT22;62505;46.070;14.492;2023-07-16T09:02:55;25.20;89.20
74153;DHT22;62505;46.070;14.492;2023-07-16T09:05:23;25.20;89.20
74153;DHT22;62505;46.070;14.492;2023-07-16T09:07:50;25.20;89.10
74153;DHT22;62505;46.070;14.492;2023-07-16T09:10:16;25.20;89.90
74153;DHT22;62505;46.070;14.492;2023-07-16T09:12:44;25.20;89.00
74153;DHT22;62505;46.070;14.492;2023-07-16T09:15:16;25.20;89.10
74153;DHT22;62505;46.070;14.492;2023-07-16T09:17:46;25.20;89.00
74153;DHT22;62505;46.070;14.492;2023-07-16T09:20:15;25.20;89.00
74153;DHT22;62505;46.070;14.492;2023-07-16T09:22:42;25.20;89.00
74153;DHT22;62505;46.070;14.492;2023-07-16T09:25:09;25.20;88.90
74153;DHT22;62505;46.070;14.492;2023-07-16T09:27:37;25.20;88.90
74153;DHT22;62505;46.070;14.492;2023-07-16T09:30:04;25.20;88.90
74153;DHT22;62505;46.070;14.492;2023-07-16T09:32:36;25.20;89.00
74153;DHT22;62505;46.070;14.492;2023-07-16T09:35:07;25.20;88.90
74153;DHT22;62505;46.070;14.492;2023-07-16T09:37:36;25.20;88.90
74153;DHT22;62505;46.070;14.492;2023-07-16T09:40:04;25.20;88.80
74153;DHT22;62505;46.070;14.492;2023-07-16T09:42:35;25.20;88.80
74153;DHT22;62505;46.070;14.492;2023-07-16T09:45:04;25.20;88.80
74153;DHT22;62505;46.070;14.492;2023-07-16T09:47:31;25.30;88.70
74153;DHT22;62505;46.070;14.492;2023-07-16T09:50:00;25.20;89.50
74153;DHT22;62505;46.070;14.492;2023-07-16T09:52:27;25.20;88.70
74153;DHT22;62505;46.070;14.492;2023-07-16T09:54:55;25.20;88.70
74153;DHT22;62505;46.070;14.492;2023-07-16T09:57:25;25.20;88.50
74153;DHT22;62505;46.070;14.492;2023-07-16T09:59:53;25.20;88.50
74153;DHT22;62505;46.070;14.492;2023-07-16T10:02:23;25.30;88.70
74153;DHT22;62505;46.070;14.492;2023-07-16T10:04:50;25.20;89.30
74153;DHT22;62505;46.070;14.492;2023-07-16T10:07:23;25.20;88.60
74153;DHT22;62505;46.070;14.492;2023-07-16T10:09:53;25.20;88.40
74153;DHT22;62505;46.070;14.492;2023-07-16T10:12:22;25.30;88.60
74153;DHT22;62505;46.070;14.492;2023-07-16T10:14:51;25.30;88.50
74153;DHT22;62505;46.070;14.492;2023-07-16T10:17:20;25.30;88.50
74153;DHT22;62505;46.070;14.492;2023-07-16T10:19:54;25.30;89.20
74153;DHT22;62505;46.070;14.492;2023-07-16T10:22:33;25.30;88.50
74153;DHT22;62505;46.070;14.492;2023-07-16T10:25:01;25.20;88.30
74153;DHT22;62505;46.070;14.492;2023-07-16T10:27:30;25.30;88.40
74153;DHT22;62505;46.070;14.492;2023-07-16T10:29:58;25.30;88.30
74153;DHT22;62505;46.070;14.492;2023-07-16T10:32:27;25.20;88.20
74153;DHT22;62505;46.070;14.492;2023-07-16T10:34:55;25.30;88.40
74153;DHT22;62505;46.070;14.492;2023-07-16T10:37:22;25.30;88.30
74153;DHT22;62505;46.070;14.492;2023-07-16T10:39:52;25.30;88.30
74153;DHT22;62505;46.070;14.492;2023-07-16T10:42:20;25.30;88.20
74153;DHT22;62505;46.070;14.492;2023-07-16T10:44:49;25.30;88.20
74153;DHT22;62505;46.070;14.492;2023-07-16T10:47:23;25.20;88.20
74153;DHT22;62505;46.070;14.492;2023-07-16T10:49:50;25.30;88.20
74153;DHT22;62505;46.070;14.492;2023-07-16T10:52:20;25.20;88.10
74153;DHT22;62505;46.070;14.492;2023-07-16T10:54:47;25.30;88.10
74153;DHT22;62505;46.070;14.492;2023-07-16T10:57:16;25.30;88.10
74153;DHT22;62505;46.070;14.492;2023-07-16T10:59:45;25.30;88.00
74153;DHT22;62505;46.070;14.492;2023-07-16T11:02:14;25.30;88.10
74153;DHT22;62505;46.070;14.492;2023-07-16T11:04:42;25.30;88.00
74153;DHT22;62505;46.070;14.492;2023-07-16T11:07:11;25.30;88.00
74153;DHT22;62505;46.070;14.492;2023-07-16T11:09:42;25.30;88.00
74153;DHT22;62505;46.070;14.492;2023-07-16T11:12:10;25.30;87.90
74153;DHT22;62505;46.070;14.492;2023-07-16T11:14:43;25.20;87.80
74153;DHT22;62505;46.070;14.492;2023-07-16T11:17:11;25.30;87.90
74153;DHT22;62505;46.070;14.492;2023-07-16T11:19:39;25.30;87.90
74153;DHT22;62505;46.070;14.492;2023-07-16T11:22:09;25.30;87.90
74153;DHT22;62505;46.070;14.492;2023-07-16T11:24:37;25.30;87.90
74153;DHT22;62505;46.070;14.492;2023-07-16T11:27:05;25.30;87.80
74153;DHT22;62505;46.070;14.492;2023-07-16T11:29:35;25.30;87.80
74153;DHT22;62505;46.070;14.492;2023-07-16T11:32:05;25.30;87.70
74153;DHT22;62505;46.070;14.492;2023-07-16T11:34:32;25.30;87.70
74153;DHT22;62505;46.070;14.492;2023-07-16T11:37:09;25.30;87.60
74153;DHT22;62505;46.070;14.492;2023-07-16T11:39:36;25.30;87.60
74153;DHT22;62505;46.070;14.492;2023-07-16T11:42:04;25.30;87.70
74153;DHT22;62505;46.070;14.492;2023-07-16T11:44:34;25.30;87.70
74153;DHT22;62505;46.070;14.492;2023-07-16T11:47:04;25.30;87.60
74153;DHT22;62505;46.070;14.492;2023-07-16T11:49:31;25.30;87.60
74153;DHT22;62505;46.070;14.492;2023-07-16T11:51:58;25.30;87.60
74153;DHT22;62505;46.070;14.492;2023-07-16T11:54:25;25.30;88.30
74153;DHT22;62505;46.070;14.492;2023-07-16T11:56:52;25.30;87.60
74153;DHT22;62505;46.070;14.492;2023-07-16T11:59:19;25.30;87.50
74153;DHT22;62505;46.070;14.492;2023-07-16T12:01:47;25.30;87.40
74153;DHT22;62505;46.070;14.492;2023-07-16T12:04:19;25.30;87.50
74153;DHT22;62505;46.070;14.492;2023-07-16T12:06:46;25.30;87.40
74153;DHT22;62505;46.070;14.492;2023-07-16T12:09:13;25.30;87.40
74153;DHT22;62505;46.070;14.492;2023-07-16T12:11:40;25.30;88.20
74153;DHT22;62505;46.070;14.492;2023-07-16T12:14:07;25.30;87.50
74153;DHT22;62505;46.070;14.492;2023-07-16T12:16:34;25.30;87.40
74153;DHT22;62505;46.070;14.492;2023-07-16T12:19:01;25.30;87.40
74153;DHT22;62505;46.070;14.492;2023-07-16T12:21:29;25.30;87.40
74153;DHT22;62505;46.070;14.492;2023-07-16T12:23:56;25.30;87.30
74153;DHT22;62505;46.070;14.492;2023-07-16T12:26:23;25.30;88.10
74153;DHT22;62505;46.070;14.492;2023-07-16T12:28:50;25.30;87.30
74153;DHT22;62505;46.070;14.492;2023-07-16T12:31:19;25.30;87.30
74153;DHT22;62505;46.070;14.492;2023-07-16T12:33:47;25.30;87.20
74153;DHT22;62505;46.070;14.492;2023-07-16T12:36:14;25.30;87.20
74153;DHT22;62505;46.070;14.492;2023-07-16T12:38:43;25.30;87.10
74153;DHT22;62505;46.070;14.492;2023-07-16T12:41:09;25.30;87.10
74153;DHT22;62505;46.070;14.492;2023-07-16T12:43:36;25.30;87.10
74153;DHT22;62505;46.070;14.492;2023-07-16T12:46:05;25.30;87.10
74153;DHT22;62505;46.070;14.492;2023-07-16T12:48:32;25.30;87.10
74153;DHT22;62505;46.070;14.492;2023-07-16T12:50:59;25.30;87.10
74153;DHT22;62505;46.070;14.492;2023-07-16T12:53:26;25.30;87.10
74153;DHT22;62505;46.070;14.492;2023-07-16T12:55:54;25.30;87.00
74153;DHT22;62505;46.070;14.492;2023-07-16T12:58:21;25.30;87.00
74153;DHT22;62505;46.070;14.492;2023-07-16T13:00:48;25.30;87.00
74153;DHT22;62505;46.070;14.492;2023-07-16T13:03:15;25.30;86.90
74153;DHT22;62505;46.070;14.492;2023-07-16T13:05:43;25.30;86.90
74153;DHT22;62505;46.070;14.492;2023-07-16T13:08:10;25.30;86.90
74153;DHT22;62505;46.070;14.492;2023-07-16T13:10:38;25.30;86.80
74153;DHT22;62505;46.070;14.492;2023-07-16T13:13:06;25.30;86.80
74153;DHT22;62505;46.070;14.492;2023-07-16T13:15:34;25.30;86.80
74153;DHT22;62505;46.070;14.492;2023-07-16T13:18:01;25.30;86.80
74153;DHT22;62505;46.070;14.492;2023-07-16T13:20:28;25.30;86.80
74153;DHT22;62505;46.070;14.492;2023-07-16T13:22:55;25.30;86.70
74153;DHT22;62505;46.070;14.492;2023-07-16T13:25:22;25.30;86.70
74153;DHT22;62505;46.070;14.492;2023-07-16T13:27:49;25.30;86.70
74153;DHT22;62505;46.070;14.492;2023-07-16T13:30:17;25.30;86.70
74153;DHT22;62505;46.070;14.492;2023-07-16T13:32:44;25.30;86.70
74153;DHT22;62505;46.070;14.492;2023-07-16T13:35:11;25.30;86.70
74153;DHT22;62505;46.070;14.492;2023-07-16T13:37:38;25.30;86.60
74153;DHT22;62505;46.070;14.492;2023-07-16T13:40:06;25.30;86.50
74153;DHT22;62505;46.070;14.492;2023-07-16T13:42:34;25.30;86.60
74153;DHT22;62505;46.070;14.492;2023-07-16T13:45:00;25.40;86.60
74153;DHT22;62505;46.070;14.492;2023-07-16T13:47:29;25.30;86.50
74153;DHT22;62505;46.070;14.492;2023-07-16T13:49:56;25.40;86.60
74153;DHT22;62505;46.070;14.492;2023-07-16T13:52:23;25.40;86.60
74153;DHT22;62505;46.070;14.492;2023-07-16T13:54:50;25.40;86.50
74153;DHT22;62505;46.070;14.492;2023-07-16T13:57:17;25.40;86.60
74153;DHT22;62505;46.070;14.492;2023-07-16T13:59:43;25.40;86.50
74153;DHT22;62505;46.070;14.492;2023-07-16T14:02:10;25.40;86.50
74153;DHT22;62505;46.070;14.492;2023-07-16T14:04:38;25.40;86.40
74153;DHT22;62505;46.070;14.492;2023-07-16T14:07:05;25.40;87.10
74153;DHT22;62505;46.070;14.492;2023-07-16T14:09:33;25.40;87.10
74153;DHT22;62505;46.070;14.492;2023-07-16T14:12:00;25.40;86.40
74153;DHT22;62505;46.070;14.492;2023-07-16T14:14:27;25.40;86.40
74153;DHT22;62505;46.070;14.492;2023-07-16T14:16:54;25.40;86.30
74153;DHT22;62505;46.070;14.492;2023-07-16T14:19:22;25.40;86.20
74153;DHT22;62505;46.070;14.492;2023-07-16T14:21:50;25.40;86.30
74153;DHT22;62505;46.070;14.492;2023-07-16T14:24:17;25.40;86.20
74153;DHT22;62505;46.070;14.492;2023-07-16T14:26:44;25.40;86.20
74153;DHT22;62505;46.070;14.492;2023-07-16T14:29:10;25.40;86.20
74153;DHT22;62505;46.070;14.492;2023-07-16T14:31:37;25.40;86.40
74153;DHT22;62505;46.070;14.492;2023-07-16T14:34:04;25.40;86.20
74153;DHT22;62505;46.070;14.492;2023-07-16T14:36:32;25.40;86.10
74153;DHT22;62505;46.070;14.492;2023-07-16T14:39:00;25.40;86.10
74153;DHT22;62505;46.070;14.492;2023-07-16T14:41:27;25.40;85.90
74153;DHT22;62505;46.070;14.492;2023-07-16T14:43:54;25.40;86.00
74153;DHT22;62505;46.070;14.492;2023-07-16T14:46:21;25.40;85.80
74153;DHT22;62505;46.070;14.492;2023-07-16T14:48:48;25.40;85.90
74153;DHT22;62505;46.070;14.492;2023-07-16T14:51:17;25.40;85.90
74153;DHT22;62505;46.070;14.492;2023-07-16T14:53:44;25.40;86.60
74153;DHT22;62505;46.070;14.492;2023-07-16T14:56:12;25.50;85.90
74153;DHT22;62505;46.070;14.492;2023-07-16T14:58:39;25.50;86.00
74153;DHT22;62505;46.070;14.492;2023-07-16T15:01:06;25.50;85.90
74153;DHT22;62505;46.070;14.492;2023-07-16T15:03:34;25.50;86.00
74153;DHT22;62505;46.070;14.492;2023-07-16T15:06:02;25.50;85.90
74153;DHT22;62505;46.070;14.492;2023-07-16T15:08:28;25.50;85.90
74153;DHT22;62505;46.070;14.492;2023-07-16T15:10:56;25.50;85.90
74153;DHT22;62505;46.070;14.492;2023-07-16T15:13:24;25.50;85.90
74153;DHT22;62505;46.070;14.492;2023-07-16T15:15:53;25.50;85.80
74153;DHT22;62505;46.070;14.492;2023-07-16T15:18:20;25.50;85.90